sensor_id;sensor_type;location;lat;lon;timestamp;P1;durP1;ratioP1;P2;durP2;ratioP2
31808;SDS011;18379;48.208;-1.518;2023-01-24T00:03:16;63.57;;;41.17;;
31808;SDS011;18379;48.208;-1.518;2023-01-24T00:08:18;54.03;;;30.00;;
31808;SDS011;18379;48.208;-1.518;2023-01-24T00:13:20;53.80;;;31.20;;
31808;SDS011;18379;48.208;-1.518;2023-01-24T00:18:20;45.30;;;28.73;;
31808;SDS011;18379;48.208;-1.518;2023-01-24T00:23:21;45.50;;;26.60;;
31808;SDS011;18379;48.208;-1.518;2023-01-24T00:28:22;44.40;;;26.90;;
31808;SDS011;18379;48.208;-1.518;2023-01-24T00:33:23;41.00;;;23.40;;
31808;SDS011;18379;48.208;-1.518;2023-01-24T00:38:24;36.83;;;23.57;;
31808;SDS011;18379;48.208;-1.518;2023-01-24T00:43:25;38.13;;;24.67;;
31808;SDS011;18379;48.208;-1.518;2023-01-24T00:48:26;28.80;;;21.53;;
31808;SDS011;18379;48.208;-1.518;2023-01-24T00:53:27;22.83;;;20.43;;
31808;SDS011;18379;48.208;-1.518;2023-01-24T00:58:28;29.13;;;22.10;;
31808;SDS011;18379;48.208;-1.518;2023-01-24T01:03:29;26.57;;;20.70;;
31808;SDS011;18379;48.208;-1.518;2023-01-24T01:08:31;32.47;;;21.83;;
31808;SDS011;18379;48.208;-1.518;2023-01-24T01:13:33;28.90;;;21.43;;
31808;SDS011;18379;48.208;-1.518;2023-01-24T01:18:34;32.80;;;23.57;;
31808;SDS011;18379;48.208;-1.518;2023-01-24T01:23:35;33.00;;;22.57;;
31808;SDS011;18379;48.208;-1.518;2023-01-24T01:28:36;38.67;;;26.53;;
31808;SDS011;18379;48.208;-1.518;2023-01-24T01:33:37;38.20;;;25.20;;
31808;SDS011;18379;48.208;-1.518;2023-01-24T01:38:38;32.00;;;22.67;;
31808;SDS011;18379;48.208;-1.518;2023-01-24T01:43:39;38.50;;;26.27;;
31808;SDS011;18379;48.208;-1.518;2023-01-24T01:49:01;38.93;;;24.47;;
31808;SDS011;18379;48.208;-1.518;2023-01-24T01:54:05;38.50;;;24.57;;
31808;SDS011;18379;48.208;-1.518;2023-01-24T01:59:13;45.90;;;31.47;;
31808;SDS011;18379;48.208;-1.518;2023-01-24T02:04:18;52.60;;;34.90;;
31808;SDS011;18379;48.208;-1.518;2023-01-24T02:09:22;38.50;;;24.93;;
31808;SDS011;18379;48.208;-1.518;2023-01-24T02:14:26;40.73;;;24.67;;
31808;SDS011;18379;48.208;-1.518;2023-01-24T02:19:55;35.27;;;22.37;;
31808;SDS011;18379;48.208;-1.518;2023-01-24T02:25:26;50.20;;;29.27;;
31808;SDS011;18379;48.208;-1.518;2023-01-24T02:30:38;43.40;;;26.93;;
31808;SDS011;18379;48.208;-1.518;2023-01-24T02:35:39;43.50;;;27.20;;
31808;SDS011;18379;48.208;-1.518;2023-01-24T02:40:40;40.33;;;25.60;;
31808;SDS011;18379;48.208;-1.518;2023-01-24T02:45:41;43.23;;;26.93;;
31808;SDS011;18379;48.208;-1.518;2023-01-24T02:50:42;41.97;;;26.50;;
31808;SDS011;18379;48.208;-1.518;2023-01-24T02:56:05;39.57;;;23.97;;
31808;SDS011;18379;48.208;-1.518;2023-01-24T03:01:26;44.73;;;26.57;;
31808;SDS011;18379;48.208;-1.518;2023-01-24T03:06:27;41.87;;;24.30;;
31808;SDS011;18379;48.208;-1.518;2023-01-24T03:11:28;47.10;;;26.13;;
31808;SDS011;18379;48.208;-1.518;2023-01-24T03:16:29;41.87;;;23.33;;
31808;SDS011;18379;48.208;-1.518;2023-01-24T03:21:48;43.83;;;26.97;;
31808;SDS011;18379;48.208;-1.518;2023-01-24T03:27:07;44.87;;;27.83;;
31808;SDS011;18379;48.208;-1.518;2023-01-24T03:32:27;44.90;;;26.87;;
31808;SDS011;18379;48.208;-1.518;2023-01-24T03:37:47;51.33;;;29.60;;
31808;SDS011;18379;48.208;-1.518;2023-01-24T03:43:06;46.00;;;28.87;;
31808;SDS011;18379;48.208;-1.518;2023-01-24T03:48:08;49.40;;;29.60;;
31808;SDS011;18379;48.208;-1.518;2023-01-24T03:53:13;58.00;;;34.43;;
31808;SDS011;18379;48.208;-1.518;2023-01-24T03:58:15;45.87;;;26.67;;
31808;SDS011;18379;48.208;-1.518;2023-01-24T04:03:15;44.17;;;27.50;;
31808;SDS011;18379;48.208;-1.518;2023-01-24T04:08:17;46.50;;;27.87;;
31808;SDS011;18379;48.208;-1.518;2023-01-24T04:13:18;41.60;;;26.27;;
31808;SDS011;18379;48.208;-1.518;2023-01-24T04:18:19;51.77;;;29.50;;
31808;SDS011;18379;48.208;-1.518;2023-01-24T04:23:20;47.17;;;28.30;;
31808;SDS011;18379;48.208;-1.518;2023-01-24T04:28:21;60.13;;;37.17;;
31808;SDS011;18379;48.208;-1.518;2023-01-24T04:33:22;55.90;;;35.50;;
31808;SDS011;18379;48.208;-1.518;2023-01-24T04:38:23;50.43;;;29.13;;
31808;SDS011;18379;48.208;-1.518;2023-01-24T04:43:25;56.53;;;31.00;;
31808;SDS011;18379;48.208;-1.518;2023-01-24T04:48:34;48.33;;;28.30;;
31808;SDS011;18379;48.208;-1.518;2023-01-24T04:53:37;45.80;;;27.13;;
31808;SDS011;18379;48.208;-1.518;2023-01-24T04:58:39;56.33;;;31.03;;
31808;SDS011;18379;48.208;-1.518;2023-01-24T05:03:39;55.53;;;31.70;;
31808;SDS011;18379;48.208;-1.518;2023-01-24T05:08:40;55.80;;;32.00;;
31808;SDS011;18379;48.208;-1.518;2023-01-24T05:13:41;40.87;;;27.10;;
31808;SDS011;18379;48.208;-1.518;2023-01-24T05:18:42;57.83;;;31.90;;
31808;SDS011;18379;48.208;-1.518;2023-01-24T05:23:43;50.90;;;30.30;;
31808;SDS011;18379;48.208;-1.518;2023-01-24T05:28:48;48.57;;;29.90;;
31808;SDS011;18379;48.208;-1.518;2023-01-24T05:33:49;59.37;;;33.47;;
31808;SDS011;18379;48.208;-1.518;2023-01-24T05:38:50;55.67;;;32.83;;
31808;SDS011;18379;48.208;-1.518;2023-01-24T05:43:51;49.73;;;30.23;;
31808;SDS011;18379;48.208;-1.518;2023-01-24T05:48:51;50.07;;;28.27;;
31808;SDS011;18379;48.208;-1.518;2023-01-24T05:53:52;58.93;;;32.27;;
31808;SDS011;18379;48.208;-1.518;2023-01-24T05:58:53;41.93;;;25.97;;
31808;SDS011;18379;48.208;-1.518;2023-01-24T06:03:54;52.57;;;29.80;;
31808;SDS011;18379;48.208;-1.518;2023-01-24T06:09:10;56.23;;;31.43;;
31808;SDS011;18379;48.208;-1.518;2023-01-24T06:14:11;65.67;;;36.33;;
31808;SDS011;18379;48.208;-1.518;2023-01-24T06:19:13;59.40;;;33.30;;
31808;SDS011;18379;48.208;-1.518;2023-01-24T06:24:21;60.37;;;32.93;;
31808;SDS011;18379;48.208;-1.518;2023-01-24T06:29:24;57.43;;;31.07;;
31808;SDS011;18379;48.208;-1.518;2023-01-24T06:39:55;57.17;;;30.87;;
31808;SDS011;18379;48.208;-1.518;2023-01-24T06:44:56;44.53;;;25.60;;
31808;SDS011;18379;48.208;-1.518;2023-01-24T06:49:57;66.63;;;37.10;;
31808;SDS011;18379;48.208;-1.518;2023-01-24T06:54:59;51.53;;;29.77;;
31808;SDS011;18379;48.208;-1.518;2023-01-24T06:59:59;54.67;;;30.70;;
31808;SDS011;18379;48.208;-1.518;2023-01-24T07:05:00;40.83;;;25.63;;
31808;SDS011;18379;48.208;-1.518;2023-01-24T07:10:01;40.93;;;24.27;;
31808;SDS011;18379;48.208;-1.518;2023-01-24T07:15:02;50.37;;;28.37;;
31808;SDS011;18379;48.208;-1.518;2023-01-24T07:20:03;47.53;;;26.20;;
31808;SDS011;18379;48.208;-1.518;2023-01-24T07:25:08;59.83;;;30.80;;
31808;SDS011;18379;48.208;-1.518;2023-01-24T07:30:15;60.87;;;30.30;;
31808;SDS011;18379;48.208;-1.518;2023-01-24T07:35:16;67.50;;;35.13;;
31808;SDS011;18379;48.208;-1.518;2023-01-24T07:40:17;56.73;;;30.93;;
31808;SDS011;18379;48.208;-1.518;2023-01-24T07:45:18;60.03;;;35.27;;
31808;SDS011;18379;48.208;-1.518;2023-01-24T07:50:20;64.90;;;35.43;;
31808;SDS011;18379;48.208;-1.518;2023-01-24T07:55:21;62.67;;;33.30;;
31808;SDS011;18379;48.208;-1.518;2023-01-24T08:00:23;58.17;;;32.10;;
31808;SDS011;18379;48.208;-1.518;2023-01-24T08:05:23;64.97;;;34.57;;
31808;SDS011;18379;48.208;-1.518;2023-01-24T08:10:24;67.23;;;34.70;;
31808;SDS011;18379;48.208;-1.518;2023-01-24T08:15:26;59.10;;;32.13;;
31808;SDS011;18379;48.208;-1.518;2023-01-24T08:20:27;59.10;;;30.70;;
31808;SDS011;18379;48.208;-1.518;2023-01-24T08:25:29;61.77;;;29.87;;
31808;SDS011;18379;48.208;-1.518;2023-01-24T08:30:32;48.00;;;26.23;;
31808;SDS011;18379;48.208;-1.518;2023-01-24T08:35:33;67.20;;;31.50;;
31808;SDS011;18379;48.208;-1.518;2023-01-24T08:40:34;58.30;;;29.33;;
31808;SDS011;18379;48.208;-1.518;2023-01-24T08:45:35;62.87;;;27.60;;
31808;SDS011;18379;48.208;-1.518;2023-01-24T08:50:37;58.40;;;29.50;;
31808;SDS011;18379;48.208;-1.518;2023-01-24T08:55:38;53.03;;;28.87;;
31808;SDS011;18379;48.208;-1.518;2023-01-24T09:00:39;68.47;;;33.40;;
31808;SDS011;18379;48.208;-1.518;2023-01-24T09:05:41;61.10;;;30.03;;
31808;SDS011;18379;48.208;-1.518;2023-01-24T09:10:42;64.87;;;35.50;;
31808;SDS011;18379;48.208;-1.518;2023-01-24T09:15:43;73.07;;;35.97;;
31808;SDS011;18379;48.208;-1.518;2023-01-24T09:20:44;73.43;;;35.90;;
31808;SDS011;18379;48.208;-1.518;2023-01-24T09:25:51;71.33;;;35.60;;
31808;SDS011;18379;48.208;-1.518;2023-01-24T09:30:52;81.27;;;42.20;;
31808;SDS011;18379;48.208;-1.518;2023-01-24T09:35:54;100.50;;;50.90;;
31808;SDS011;18379;48.208;-1.518;2023-01-24T09:46:43;72.30;;;37.33;;
31808;SDS011;18379;48.208;-1.518;2023-01-24T09:51:50;95.23;;;47.00;;
31808;SDS011;18379;48.208;-1.518;2023-01-24T09:56:52;84.53;;;45.53;;
31808;SDS011;18379;48.208;-1.518;2023-01-24T10:01:55;84.87;;;48.67;;
31808;SDS011;18379;48.208;-1.518;2023-01-24T10:17:37;66.67;;;34.13;;
31808;SDS011;18379;48.208;-1.518;2023-01-24T10:23:12;81.77;;;40.20;;
31808;SDS011;18379;48.208;-1.518;2023-01-24T10:28:30;80.77;;;42.63;;
31808;SDS011;18379;48.208;-1.518;2023-01-24T10:33:45;53.53;;;28.53;;
31808;SDS011;18379;48.208;-1.518;2023-01-24T10:39:12;62.63;;;34.50;;
31808;SDS011;18379;48.208;-1.518;2023-01-24T10:49:37;75.37;;;41.60;;
31808;SDS011;18379;48.208;-1.518;2023-01-24T10:54:49;73.00;;;36.70;;
31808;SDS011;18379;48.208;-1.518;2023-01-24T10:59:53;73.90;;;37.43;;
31808;SDS011;18379;48.208;-1.518;2023-01-24T11:04:58;83.50;;;43.07;;
31808;SDS011;18379;48.208;-1.518;2023-01-24T11:10:00;57.93;;;31.93;;
31808;SDS011;18379;48.208;-1.518;2023-01-24T11:15:14;64.27;;;32.77;;
31808;SDS011;18379;48.208;-1.518;2023-01-24T11:25:33;73.77;;;34.07;;
31808;SDS011;18379;48.208;-1.518;2023-01-24T11:30:36;71.33;;;34.83;;
31808;SDS011;18379;48.208;-1.518;2023-01-24T11:35:41;70.00;;;35.20;;
31808;SDS011;18379;48.208;-1.518;2023-01-24T12:02:03;77.57;;;42.87;;
31808;SDS011;18379;48.208;-1.518;2023-01-24T12:13:13;71.80;;;36.97;;
31808;SDS011;18379;48.208;-1.518;2023-01-24T12:23:51;66.93;;;34.47;;
31808;SDS011;18379;48.208;-1.518;2023-01-24T12:29:02;79.83;;;44.37;;
31808;SDS011;18379;48.208;-1.518;2023-01-24T12:39:49;81.27;;;39.57;;
31808;SDS011;18379;48.208;-1.518;2023-01-24T12:45:02;58.87;;;33.43;;
31808;SDS011;18379;48.208;-1.518;2023-01-24T13:16:37;80.00;;;38.40;;
31808;SDS011;18379;48.208;-1.518;2023-01-24T13:21:54;74.67;;;38.97;;
31808;SDS011;18379;48.208;-1.518;2023-01-24T13:32:20;90.73;;;53.03;;
31808;SDS011;18379;48.208;-1.518;2023-01-24T13:42:38;90.20;;;52.27;;
31808;SDS011;18379;48.208;-1.518;2023-01-24T13:47:39;64.90;;;35.13;;
31808;SDS011;18379;48.208;-1.518;2023-01-24T13:52:42;68.57;;;36.87;;
31808;SDS011;18379;48.208;-1.518;2023-01-24T13:57:46;79.97;;;44.47;;
31808;SDS011;18379;48.208;-1.518;2023-01-24T14:07:48;76.93;;;43.87;;
31808;SDS011;18379;48.208;-1.518;2023-01-24T14:12:53;70.90;;;38.70;;
31808;SDS011;18379;48.208;-1.518;2023-01-24T14:17:54;70.77;;;39.30;;
31808;SDS011;18379;48.208;-1.518;2023-01-24T14:22:57;82.17;;;45.17;;
31808;SDS011;18379;48.208;-1.518;2023-01-24T14:28:00;74.03;;;39.73;;
31808;SDS011;18379;48.208;-1.518;2023-01-24T14:38:42;66.20;;;36.80;;
31808;SDS011;18379;48.208;-1.518;2023-01-24T14:43:43;75.47;;;39.13;;
31808;SDS011;18379;48.208;-1.518;2023-01-24T14:48:43;71.47;;;38.73;;
31808;SDS011;18379;48.208;-1.518;2023-01-24T14:53:49;75.30;;;40.70;;
31808;SDS011;18379;48.208;-1.518;2023-01-24T14:58:51;76.47;;;46.57;;
31808;SDS011;18379;48.208;-1.518;2023-01-24T15:03:54;80.57;;;42.00;;
31808;SDS011;18379;48.208;-1.518;2023-01-24T15:08:57;72.77;;;41.33;;
31808;SDS011;18379;48.208;-1.518;2023-01-24T15:14:01;73.67;;;43.13;;
31808;SDS011;18379;48.208;-1.518;2023-01-24T15:24:35;70.17;;;36.33;;
31808;SDS011;18379;48.208;-1.518;2023-01-24T15:34:46;83.43;;;45.40;;
31808;SDS011;18379;48.208;-1.518;2023-01-24T15:39:47;68.40;;;39.00;;
31808;SDS011;18379;48.208;-1.518;2023-01-24T15:44:57;70.27;;;39.07;;
31808;SDS011;18379;48.208;-1.518;2023-01-24T15:49:58;101.80;;;52.20;;
31808;SDS011;18379;48.208;-1.518;2023-01-24T15:55:20;68.67;;;37.83;;
31808;SDS011;18379;48.208;-1.518;2023-01-24T16:00:22;68.63;;;37.33;;
31808;SDS011;18379;48.208;-1.518;2023-01-24T16:05:24;74.13;;;40.03;;
31808;SDS011;18379;48.208;-1.518;2023-01-24T16:10:29;61.63;;;35.23;;
31808;SDS011;18379;48.208;-1.518;2023-01-24T16:15:31;64.33;;;34.00;;
31808;SDS011;18379;48.208;-1.518;2023-01-24T16:20:32;72.97;;;36.03;;
31808;SDS011;18379;48.208;-1.518;2023-01-24T16:25:34;66.47;;;35.20;;
31808;SDS011;18379;48.208;-1.518;2023-01-24T16:30:35;65.17;;;33.73;;
31808;SDS011;18379;48.208;-1.518;2023-01-24T16:35:36;60.23;;;32.87;;
31808;SDS011;18379;48.208;-1.518;2023-01-24T16:40:37;72.83;;;38.07;;
31808;SDS011;18379;48.208;-1.518;2023-01-24T16:45:43;78.70;;;36.83;;
31808;SDS011;18379;48.208;-1.518;2023-01-24T16:50:46;84.07;;;41.13;;
31808;SDS011;18379;48.208;-1.518;2023-01-24T16:55:54;78.57;;;40.27;;
31808;SDS011;18379;48.208;-1.518;2023-01-24T17:00:56;90.77;;;47.97;;
31808;SDS011;18379;48.208;-1.518;2023-01-24T17:05:57;70.30;;;38.20;;
31808;SDS011;18379;48.208;-1.518;2023-01-24T17:11:04;71.53;;;38.57;;
31808;SDS011;18379;48.208;-1.518;2023-01-24T17:16:07;66.90;;;37.80;;
31808;SDS011;18379;48.208;-1.518;2023-01-24T17:21:10;65.83;;;34.63;;
31808;SDS011;18379;48.208;-1.518;2023-01-24T17:26:14;72.37;;;39.53;;
31808;SDS011;18379;48.208;-1.518;2023-01-24T17:31:17;71.63;;;37.17;;
31808;SDS011;18379;48.208;-1.518;2023-01-24T17:36:22;70.70;;;37.73;;
31808;SDS011;18379;48.208;-1.518;2023-01-24T17:41:23;65.00;;;33.83;;
31808;SDS011;18379;48.208;-1.518;2023-01-24T17:46:24;74.60;;;38.27;;
31808;SDS011;18379;48.208;-1.518;2023-01-24T17:51:25;55.57;;;30.07;;
31808;SDS011;18379;48.208;-1.518;2023-01-24T17:56:26;87.70;;;41.07;;
31808;SDS011;18379;48.208;-1.518;2023-01-24T18:01:28;65.30;;;32.67;;
31808;SDS011;18379;48.208;-1.518;2023-01-24T18:06:29;64.53;;;34.20;;
31808;SDS011;18379;48.208;-1.518;2023-01-24T18:11:31;64.13;;;32.20;;
31808;SDS011;18379;48.208;-1.518;2023-01-24T18:16:32;60.57;;;30.77;;
31808;SDS011;18379;48.208;-1.518;2023-01-24T18:21:32;60.37;;;30.37;;
31808;SDS011;18379;48.208;-1.518;2023-01-24T18:26:33;62.63;;;31.77;;
31808;SDS011;18379;48.208;-1.518;2023-01-24T18:31:37;55.63;;;30.07;;
31808;SDS011;18379;48.208;-1.518;2023-01-24T18:36:38;65.90;;;32.60;;
31808;SDS011;18379;48.208;-1.518;2023-01-24T18:41:39;63.93;;;32.60;;
31808;SDS011;18379;48.208;-1.518;2023-01-24T18:52:23;95.47;;;50.90;;
31808;SDS011;18379;48.208;-1.518;2023-01-24T18:57:23;90.07;;;44.90;;
31808;SDS011;18379;48.208;-1.518;2023-01-24T19:02:24;77.93;;;37.83;;
31808;SDS011;18379;48.208;-1.518;2023-01-24T19:07:25;78.60;;;38.83;;
31808;SDS011;18379;48.208;-1.518;2023-01-24T19:12:26;75.77;;;37.53;;
31808;SDS011;18379;48.208;-1.518;2023-01-24T19:17:27;69.43;;;34.97;;
31808;SDS011;18379;48.208;-1.518;2023-01-24T19:22:28;68.37;;;34.97;;
31808;SDS011;18379;48.208;-1.518;2023-01-24T19:27:29;66.17;;;34.27;;
31808;SDS011;18379;48.208;-1.518;2023-01-24T19:32:30;76.03;;;35.57;;
31808;SDS011;18379;48.208;-1.518;2023-01-24T19:37:31;72.57;;;35.83;;
31808;SDS011;18379;48.208;-1.518;2023-01-24T19:42:32;69.50;;;34.10;;
31808;SDS011;18379;48.208;-1.518;2023-01-24T19:47:32;60.30;;;30.10;;
31808;SDS011;18379;48.208;-1.518;2023-01-24T19:52:34;62.97;;;30.67;;
31808;SDS011;18379;48.208;-1.518;2023-01-24T19:57:34;71.03;;;35.23;;
31808;SDS011;18379;48.208;-1.518;2023-01-24T20:02:35;65.70;;;32.40;;
31808;SDS011;18379;48.208;-1.518;2023-01-24T20:07:36;68.40;;;32.43;;
31808;SDS011;18379;48.208;-1.518;2023-01-24T20:12:37;63.83;;;33.43;;
31808;SDS011;18379;48.208;-1.518;2023-01-24T20:17:40;58.90;;;29.13;;
31808;SDS011;18379;48.208;-1.518;2023-01-24T20:22:41;66.83;;;31.67;;
31808;SDS011;18379;48.208;-1.518;2023-01-24T20:27:45;68.07;;;32.97;;
31808;SDS011;18379;48.208;-1.518;2023-01-24T20:32:46;74.07;;;34.90;;
31808;SDS011;18379;48.208;-1.518;2023-01-24T20:37:48;101.07;;;41.77;;
31808;SDS011;18379;48.208;-1.518;2023-01-24T20:42:52;70.97;;;35.57;;
31808;SDS011;18379;48.208;-1.518;2023-01-24T20:47:53;68.90;;;36.37;;
31808;SDS011;18379;48.208;-1.518;2023-01-24T20:52:55;64.90;;;33.40;;
31808;SDS011;18379;48.208;-1.518;2023-01-24T20:57:57;73.13;;;36.33;;
31808;SDS011;18379;48.208;-1.518;2023-01-24T21:02:57;76.77;;;37.97;;
31808;SDS011;18379;48.208;-1.518;2023-01-24T21:07:58;72.83;;;36.90;;
31808;SDS011;18379;48.208;-1.518;2023-01-24T21:12:59;85.50;;;40.87;;
31808;SDS011;18379;48.208;-1.518;2023-01-24T21:18:00;63.80;;;33.63;;
31808;SDS011;18379;48.208;-1.518;2023-01-24T21:23:01;78.43;;;39.50;;
31808;SDS011;18379;48.208;-1.518;2023-01-24T21:28:02;59.63;;;32.40;;
31808;SDS011;18379;48.208;-1.518;2023-01-24T21:33:03;63.77;;;33.67;;
31808;SDS011;18379;48.208;-1.518;2023-01-24T21:38:04;71.30;;;33.60;;
31808;SDS011;18379;48.208;-1.518;2023-01-24T21:43:05;64.50;;;33.47;;
31808;SDS011;18379;48.208;-1.518;2023-01-24T21:48:06;61.17;;;32.53;;
31808;SDS011;18379;48.208;-1.518;2023-01-24T21:53:07;69.33;;;33.30;;
31808;SDS011;18379;48.208;-1.518;2023-01-24T21:58:27;73.87;;;35.97;;
31808;SDS011;18379;48.208;-1.518;2023-01-24T22:03:28;88.07;;;41.10;;
31808;SDS011;18379;48.208;-1.518;2023-01-24T22:08:30;82.43;;;39.27;;
31808;SDS011;18379;48.208;-1.518;2023-01-24T22:13:32;79.17;;;40.17;;
31808;SDS011;18379;48.208;-1.518;2023-01-24T22:18:33;81.40;;;40.20;;
31808;SDS011;18379;48.208;-1.518;2023-01-24T22:23:35;71.93;;;34.77;;
31808;SDS011;18379;48.208;-1.518;2023-01-24T22:28:40;68.23;;;34.43;;
31808;SDS011;18379;48.208;-1.518;2023-01-24T22:33:42;77.43;;;35.27;;
31808;SDS011;18379;48.208;-1.518;2023-01-24T22:38:43;83.33;;;40.27;;
31808;SDS011;18379;48.208;-1.518;2023-01-24T22:43:44;81.83;;;36.27;;
31808;SDS011;18379;48.208;-1.518;2023-01-24T22:48:44;94.10;;;40.60;;
31808;SDS011;18379;48.208;-1.518;2023-01-24T22:53:45;79.90;;;36.63;;
31808;SDS011;18379;48.208;-1.518;2023-01-24T22:58:46;66.57;;;34.70;;
31808;SDS011;18379;48.208;-1.518;2023-01-24T23:03:47;102.53;;;46.93;;
31808;SDS011;18379;48.208;-1.518;2023-01-24T23:08:48;78.10;;;37.07;;
31808;SDS011;18379;48.208;-1.518;2023-01-24T23:13:49;75.37;;;37.13;;
31808;SDS011;18379;48.208;-1.518;2023-01-24T23:24:48;82.40;;;38.17;;
31808;SDS011;18379;48.208;-1.518;2023-01-24T23:29:54;75.93;;;34.83;;
31808;SDS011;18379;48.208;-1.518;2023-01-24T23:35:12;75.73;;;34.63;;
31808;SDS011;18379;48.208;-1.518;2023-01-24T23:40:14;79.53;;;35.67;;
31808;SDS011;18379;48.208;-1.518;2023-01-24T23:45:16;83.10;;;36.60;;
31808;SDS011;18379;48.208;-1.518;2023-01-24T23:50:18;77.27;;;36.77;;
31808;SDS011;18379;48.208;-1.518;2023-01-24T23:55:19;71.90;;;33.13;;
